createdAt,value
2019-04-16T00:01:27.875Z,4.20
2019-04-16T00:04:02.363Z,4.33
2019-04-16T00:06:50.994Z,4.57
2019-04-16T00:09:40.813Z,4.47
2019-04-16T00:12:22.647Z,4.67
2019-04-16T00:14:52.856Z,4.73
2019-04-16T00:17:22.402Z,5.17
2019-04-16T00:19:52.012Z,5.10
2019-04-16T00:22:28.989Z,4.30
2019-04-16T00:24:58.507Z,4.50
2019-04-16T00:27:28.733Z,4.47
2019-04-16T00:30:04.110Z,4.60
2019-04-16T00:32:30.984Z,3.83
2019-04-16T00:35:00.565Z,4.50
2019-04-16T00:37:30.202Z,4.43
2019-04-16T00:39:59.760Z,9.07
2019-04-16T00:42:29.723Z,3.80
2019-04-16T00:44:59.268Z,4.20
2019-04-16T00:47:29.164Z,3.90
2019-04-16T00:49:59.489Z,4.03
2019-04-16T00:52:29.307Z,5.13
2019-04-16T00:54:58.906Z,4.50
2019-04-16T00:57:28.832Z,4.40
2019-04-16T00:59:58.436Z,4.57
2019-04-16T01:02:28.014Z,4.73
2019-04-16T01:04:57.573Z,4.17
2019-04-16T01:07:27.149Z,5.17
2019-04-16T01:09:56.723Z,4.00
2019-04-16T01:12:26.263Z,4.23
2019-04-16T01:14:58.802Z,5.13
2019-04-16T01:17:27.047Z,4.93
2019-04-16T01:19:56.581Z,4.17
2019-04-16T01:22:26.241Z,3.93
2019-04-16T01:24:55.831Z,4.93
2019-04-16T01:27:32.421Z,4.00
2019-04-16T01:30:04.876Z,5.20
2019-04-16T01:32:53.957Z,3.80
2019-04-16T01:35:52.724Z,6.10
2019-04-16T01:38:39.470Z,6.13
2019-04-16T01:41:27.196Z,4.63
2019-04-16T01:43:57.266Z,4.23
2019-04-16T01:46:32.549Z,4.47
2019-04-16T01:48:59.192Z,4.40
2019-04-16T01:51:28.721Z,4.90
2019-04-16T01:53:58.521Z,4.27
2019-04-16T01:56:29.107Z,4.53
2019-04-16T01:58:59.125Z,4.67
2019-04-16T02:01:29.056Z,4.33
2019-04-16T02:03:58.999Z,4.20
2019-04-16T02:06:28.979Z,4.43
2019-04-16T02:09:01.743Z,4.40
2019-04-16T02:11:30.076Z,4.30
2019-04-16T02:13:59.688Z,4.23
2019-04-16T02:16:29.240Z,4.10
2019-04-16T02:19:01.299Z,4.37
2019-04-16T02:21:30.073Z,4.23
2019-04-16T02:24:00.024Z,5.03
2019-04-16T02:26:29.591Z,4.07
2019-04-16T02:28:59.619Z,4.27
2019-04-16T02:31:29.205Z,4.60
2019-04-16T02:33:58.795Z,4.47
2019-04-16T02:36:28.356Z,7.40
2019-04-16T02:38:57.947Z,5.33
2019-04-16T02:41:27.807Z,4.07
2019-04-16T02:43:57.351Z,5.03
2019-04-16T02:46:30.934Z,4.60
2019-04-16T02:48:58.214Z,4.43
2019-04-16T02:51:43.087Z,4.23
2019-04-16T02:54:20.779Z,4.97
2019-04-16T02:57:00.547Z,4.60
2019-04-16T02:59:33.551Z,4.50
2019-04-16T03:02:23.086Z,5.00
2019-04-16T03:05:14.497Z,5.13
2019-04-16T03:07:44.074Z,4.20
2019-04-16T03:10:14.048Z,4.47
2019-04-16T03:12:43.766Z,4.33
2019-04-16T03:15:16.446Z,4.17
2019-04-16T03:17:46.669Z,5.03
2019-04-16T03:20:17.014Z,4.90
2019-04-16T03:22:46.562Z,4.50
2019-04-16T03:25:16.177Z,4.17
2019-04-16T03:27:45.735Z,4.87
2019-04-16T03:30:15.673Z,4.27
2019-04-16T03:32:51.601Z,4.40
2019-04-16T03:35:25.466Z,4.47
2019-04-16T03:37:52.396Z,5.13
2019-04-16T03:40:25.633Z,4.20
2019-04-16T03:42:53.209Z,5.07
2019-04-16T03:45:22.773Z,51.03
2019-04-16T03:47:52.493Z,30.60
2019-04-16T03:50:22.228Z,52.57
2019-04-16T03:52:51.861Z,63.17
2019-04-16T03:55:24.939Z,61.73
2019-04-16T03:57:52.745Z,45.17
2019-04-16T04:00:22.349Z,50.00
2019-04-16T04:02:55.202Z,50.87
2019-04-16T04:05:23.183Z,42.83
2019-04-16T04:07:55.235Z,37.60
2019-04-16T04:10:30.848Z,34.87
2019-04-16T04:12:55.222Z,32.43
2019-04-16T04:15:26.485Z,34.70
2019-04-16T04:17:56.053Z,30.00
2019-04-16T04:20:25.599Z,24.43
2019-04-16T04:22:57.029Z,31.27
2019-04-16T04:25:26.433Z,25.43
2019-04-16T04:27:56.307Z,31.00
2019-04-16T04:30:28.729Z,21.63
2019-04-16T04:32:57.747Z,25.23
2019-04-16T04:35:27.300Z,23.73
2019-04-16T04:37:56.867Z,23.57
2019-04-16T04:40:45.179Z,21.37
2019-04-16T04:43:15.734Z,22.93
2019-04-16T04:45:45.269Z,21.87
2019-04-16T04:48:14.818Z,19.77
2019-04-16T04:50:44.400Z,20.97
2019-04-16T04:53:15.615Z,17.23
2019-04-16T04:55:45.199Z,16.73
2019-04-16T04:58:16.353Z,21.07
2019-04-16T05:00:46.201Z,17.70
2019-04-16T05:03:27.093Z,21.80
2019-04-16T05:05:58.230Z,16.63
2019-04-16T05:08:28.641Z,19.67
2019-04-16T05:11:02.673Z,14.87
2019-04-16T05:13:31.044Z,15.37
2019-04-16T05:16:02.015Z,13.07
2019-04-16T05:18:31.864Z,13.47
2019-04-16T05:21:01.780Z,15.33
2019-04-16T05:23:31.343Z,13.43
2019-04-16T05:26:04.495Z,14.73
2019-04-16T05:28:32.640Z,11.63
2019-04-16T05:31:02.191Z,11.57
2019-04-16T05:33:34.503Z,8.97
2019-04-16T05:36:03.606Z,10.27
2019-04-16T05:38:33.149Z,11.23
2019-04-16T05:41:13.260Z,12.40
2019-04-16T05:43:34.305Z,11.57
2019-04-16T05:46:05.510Z,12.17
2019-04-16T05:48:35.133Z,11.50
2019-04-16T05:51:04.923Z,9.87
2019-04-16T05:53:37.368Z,11.10
2019-04-16T05:56:29.223Z,8.17
2019-04-16T05:58:59.587Z,10.27
2019-04-16T06:01:35.235Z,8.23
2019-04-16T06:04:04.767Z,6.60
2019-04-16T06:06:34.309Z,8.17
2019-04-16T06:09:04.922Z,10.60
2019-04-16T06:11:36.536Z,8.77
2019-04-16T06:14:26.161Z,7.60
2019-04-16T06:17:17.639Z,7.63
2019-04-16T06:19:59.420Z,7.17
2019-04-16T06:22:47.945Z,7.70
2019-04-16T06:25:33.664Z,8.13
2019-04-16T06:28:34.340Z,7.37
2019-04-16T06:31:11.988Z,8.60
2019-04-16T06:33:58.792Z,6.87
2019-04-16T06:36:56.665Z,6.93
2019-04-16T06:39:41.742Z,5.93
2019-04-16T06:42:29.206Z,6.67
2019-04-16T06:45:01.547Z,5.70
2019-04-16T06:47:51.746Z,6.40
2019-04-16T06:50:49.501Z,5.17
2019-04-16T06:53:44.216Z,6.27
2019-04-16T06:56:31.416Z,5.20
2019-04-16T06:59:10.975Z,7.40
2019-04-16T07:01:58.407Z,6.27
2019-04-16T07:04:35.572Z,7.07
2019-04-16T07:07:22.553Z,6.33
2019-04-16T07:10:11.592Z,4.67
2019-04-16T07:12:41.146Z,4.80
2019-04-16T07:15:10.729Z,4.40
2019-04-16T07:17:40.738Z,5.10
2019-04-16T07:20:13.342Z,5.60
2019-04-16T07:22:41.595Z,8.00
2019-04-16T07:25:11.187Z,4.87
2019-04-16T07:28:03.851Z,4.63
2019-04-16T07:30:52.603Z,5.20
2019-04-16T07:33:43.962Z,5.20
2019-04-16T07:36:24.289Z,4.77
2019-04-16T07:39:29.603Z,4.73
2019-04-16T07:42:10.737Z,5.07
2019-04-16T07:44:41.081Z,6.93
2019-04-16T07:47:29.717Z,5.37
2019-04-16T07:50:24.112Z,4.67
2019-04-16T07:53:18.212Z,4.37
2019-04-16T07:55:49.957Z,4.70
2019-04-16T07:58:19.520Z,4.60
2019-04-16T08:00:49.095Z,5.90
2019-04-16T08:03:18.730Z,4.90
2019-04-16T08:05:48.626Z,4.87
2019-04-16T08:08:24.347Z,5.07
2019-04-16T08:10:51.318Z,5.53
2019-04-16T08:13:22.306Z,5.03
2019-04-16T08:15:52.136Z,5.63
2019-04-16T08:18:48.711Z,5.83
2019-04-16T08:21:18.450Z,7.07
2019-04-16T08:23:57.014Z,5.70
2019-04-16T08:26:26.554Z,6.50
2019-04-16T08:28:56.089Z,5.93
2019-04-16T08:31:28.147Z,5.30
2019-04-16T08:33:57.706Z,5.30
2019-04-16T08:36:27.233Z,6.23
2019-04-16T08:38:56.802Z,6.87
2019-04-16T08:41:45.018Z,5.07
2019-04-16T08:44:14.567Z,5.93
2019-04-16T08:46:44.152Z,6.73
2019-04-16T08:49:31.943Z,4.87
2019-04-16T08:52:01.950Z,5.30
2019-04-16T08:54:31.833Z,5.37
2019-04-16T08:57:03.273Z,4.87
2019-04-16T08:59:32.791Z,4.77
2019-04-16T09:02:02.354Z,5.40
2019-04-16T09:04:34.696Z,5.60
2019-04-16T09:07:11.447Z,6.20
2019-04-16T09:09:47.432Z,5.90
2019-04-16T09:12:17.063Z,4.97
2019-04-16T09:14:54.981Z,5.40
2019-04-16T09:17:23.372Z,6.40
2019-04-16T09:20:11.911Z,5.57
2019-04-16T09:22:48.710Z,4.97
2019-04-16T09:25:24.210Z,5.63
2019-04-16T09:28:00.725Z,7.27
2019-04-16T09:30:49.684Z,6.43
2019-04-16T09:33:23.921Z,5.43
2019-04-16T09:36:08.188Z,6.27
2019-04-16T09:38:49.569Z,5.97
2019-04-16T09:41:25.530Z,5.13
2019-04-16T09:43:59.447Z,5.30
2019-04-16T09:46:49.699Z,5.13
2019-04-16T09:49:00.803Z,5.97
2019-04-16T09:51:30.361Z,6.37
2019-04-16T09:53:59.926Z,5.03
2019-04-16T09:56:30.322Z,5.63
2019-04-16T09:59:14.462Z,5.13
2019-04-16T10:01:47.426Z,6.40
2019-04-16T10:04:18.626Z,5.87
2019-04-16T10:06:48.207Z,5.40
2019-04-16T10:09:21.686Z,5.60
2019-04-16T10:11:49.423Z,7.03
2019-04-16T10:14:18.964Z,5.90
2019-04-16T10:17:07.829Z,6.37
2019-04-16T10:19:37.423Z,6.00
2019-04-16T10:22:06.977Z,5.83
2019-04-16T10:24:54.049Z,5.73
2019-04-16T10:27:32.467Z,5.67
2019-04-16T10:30:02.097Z,5.93
2019-04-16T10:32:31.666Z,6.13
2019-04-16T10:35:01.503Z,6.63
2019-04-16T10:37:31.032Z,5.63
2019-04-16T10:40:09.532Z,5.83
2019-04-16T10:42:56.877Z,6.90
2019-04-16T10:45:44.194Z,6.37
2019-04-16T10:48:31.450Z,5.97
2019-04-16T10:51:21.501Z,5.83
2019-04-16T10:53:55.330Z,6.90
2019-04-16T10:56:42.524Z,6.20
2019-04-16T10:59:31.440Z,5.93
2019-04-16T11:02:19.974Z,6.00
2019-04-16T11:05:15.266Z,6.13
2019-04-16T11:07:45.624Z,6.47
2019-04-16T11:10:15.312Z,5.77
2019-04-16T11:12:45.006Z,5.73
2019-04-16T11:15:19.305Z,6.00
2019-04-16T11:17:48.847Z,6.70
2019-04-16T11:20:18.381Z,5.87
2019-04-16T11:22:48.033Z,6.30
2019-04-16T11:25:17.704Z,7.40
2019-04-16T11:27:47.329Z,6.77
2019-04-16T11:30:30.784Z,7.93
2019-04-16T11:33:00.612Z,5.50
2019-04-16T11:35:30.225Z,6.30
2019-04-16T11:37:59.901Z,6.30
2019-04-16T11:40:29.470Z,5.73
2019-04-16T11:42:59.017Z,6.20
2019-04-16T11:45:28.902Z,6.57
2019-04-16T11:47:58.518Z,6.30
2019-04-16T11:50:28.062Z,7.10
2019-04-16T11:52:58.673Z,7.10
2019-04-16T11:55:28.289Z,7.30
2019-04-16T11:57:58.175Z,6.03
2019-04-16T12:00:52.577Z,7.33
2019-04-16T12:03:28.217Z,6.13
2019-04-16T12:06:29.015Z,6.30
2019-04-16T12:09:20.510Z,6.30
2019-04-16T12:12:04.280Z,6.47
2019-04-16T12:14:52.216Z,6.80
2019-04-16T12:17:36.235Z,6.30
2019-04-16T12:20:24.003Z,6.73
2019-04-16T12:23:18.528Z,7.27
2019-04-16T12:26:08.724Z,6.73
2019-04-16T12:29:15.983Z,8.90
2019-04-16T12:32:13.142Z,8.37
2019-04-16T12:35:02.008Z,8.03
2019-04-16T12:37:49.043Z,6.20
2019-04-16T12:40:54.801Z,7.63
2019-04-16T12:43:33.916Z,7.07
2019-04-16T12:46:31.199Z,6.10
2019-04-16T12:49:18.372Z,7.60
2019-04-16T12:52:06.940Z,6.77
2019-04-16T12:55:02.072Z,6.77
2019-04-16T12:57:39.950Z,9.67
2019-04-16T13:00:14.401Z,7.07
2019-04-16T13:02:49.556Z,7.30
2019-04-16T13:05:38.090Z,7.63
2019-04-16T13:08:32.572Z,7.53
2019-04-16T13:11:19.118Z,8.47
2019-04-16T13:14:06.376Z,9.17
2019-04-16T13:17:03.963Z,7.73
2019-04-16T13:19:44.036Z,6.90
2019-04-16T13:22:15.090Z,8.23
2019-04-16T13:24:47.990Z,7.93
2019-04-16T13:27:32.537Z,7.80
2019-04-16T13:30:03.198Z,8.20
2019-04-16T13:32:33.128Z,8.17
2019-04-16T13:35:03.010Z,7.20
2019-04-16T13:37:36.851Z,7.43
2019-04-16T13:40:09.743Z,8.00
2019-04-16T13:42:39.407Z,10.43
2019-04-16T13:45:27.030Z,7.57
2019-04-16T13:47:56.509Z,8.37
2019-04-16T13:50:45.571Z,8.60
2019-04-16T13:53:34.149Z,8.67
2019-04-16T13:56:25.396Z,7.63
2019-04-16T13:59:13.161Z,8.33
2019-04-16T14:01:48.297Z,8.33
2019-04-16T14:04:17.845Z,8.03
2019-04-16T14:06:47.420Z,11.27
2019-04-16T14:09:16.968Z,7.80
2019-04-16T14:11:51.061Z,7.53
2019-04-16T14:14:18.770Z,7.87
2019-04-16T14:16:49.124Z,7.83
2019-04-16T14:19:18.999Z,7.17
2019-04-16T14:21:48.581Z,8.53
2019-04-16T14:24:18.139Z,8.83
2019-04-16T14:26:47.717Z,10.53
2019-04-16T14:29:17.270Z,9.53
2019-04-16T14:31:48.911Z,10.07
2019-04-16T14:34:25.198Z,10.13
2019-04-16T14:36:56.972Z,9.67
2019-04-16T14:39:31.968Z,10.47
2019-04-16T14:42:01.551Z,10.20
2019-04-16T14:44:36.328Z,10.63
2019-04-16T14:47:05.914Z,10.37
2019-04-16T14:49:35.468Z,11.40
2019-04-16T14:52:05.616Z,12.73
2019-04-16T14:54:43.239Z,10.97
2019-04-16T14:57:13.327Z,11.60
2019-04-16T15:00:10.725Z,12.20
2019-04-16T15:02:51.840Z,11.83
2019-04-16T15:05:47.617Z,12.13
2019-04-16T15:08:36.677Z,11.00
2019-04-16T15:11:28.149Z,14.07
2019-04-16T15:14:08.011Z,12.03
2019-04-16T15:16:42.325Z,13.37
2019-04-16T15:19:29.736Z,14.70
2019-04-16T15:22:16.801Z,13.53
2019-04-16T15:24:50.905Z,12.73
2019-04-16T15:27:51.260Z,10.47
2019-04-16T15:30:45.751Z,9.73
2019-04-16T15:33:35.713Z,10.43
2019-04-16T15:36:09.877Z,11.90
2019-04-16T15:38:59.038Z,12.67
2019-04-16T15:41:58.581Z,10.13
2019-04-16T15:44:34.927Z,9.60
2019-04-16T15:47:32.142Z,9.73
2019-04-16T15:50:20.013Z,9.63
2019-04-16T15:53:04.936Z,10.63
2019-04-16T15:55:56.417Z,8.83
2019-04-16T15:58:48.111Z,9.47
2019-04-16T16:01:35.998Z,9.07
2019-04-16T16:04:18.098Z,9.43
2019-04-16T16:06:55.039Z,10.73
2019-04-16T16:09:43.655Z,9.00
2019-04-16T16:12:15.286Z,10.67
2019-04-16T16:14:44.854Z,9.20
2019-04-16T16:17:14.738Z,8.13
2019-04-16T16:19:44.305Z,8.40
2019-04-16T16:22:13.878Z,8.60
2019-04-16T16:24:43.439Z,8.60
2019-04-16T16:27:13.414Z,8.03
2019-04-16T16:29:43.001Z,8.83
2019-04-16T16:32:12.560Z,8.47
2019-04-16T16:34:42.094Z,7.90
2019-04-16T16:37:11.662Z,7.00
2019-04-16T16:39:41.195Z,8.00
2019-04-16T16:42:11.087Z,7.60
2019-04-16T16:44:40.624Z,8.60
2019-04-16T16:47:28.098Z,9.30
2019-04-16T16:49:57.659Z,8.60
2019-04-16T16:52:55.157Z,9.97
2019-04-16T16:55:49.806Z,8.33
2019-04-16T16:58:36.910Z,8.03
2019-04-16T17:01:43.363Z,7.50
2019-04-16T17:04:18.777Z,7.80
2019-04-16T17:06:48.334Z,8.50
2019-04-16T17:09:27.179Z,7.70
2019-04-16T17:11:57.669Z,7.77
2019-04-16T17:14:27.236Z,9.90
2019-04-16T17:17:11.754Z,7.60
2019-04-16T17:19:28.775Z,9.50
2019-04-16T17:21:58.449Z,7.90
2019-04-16T17:24:28.079Z,9.07
2019-04-16T17:26:57.675Z,8.83
2019-04-16T17:29:27.367Z,7.60
2019-04-16T17:31:56.922Z,7.83
2019-04-16T17:34:26.611Z,8.80
2019-04-16T17:36:56.440Z,8.10
2019-04-16T17:40:00.365Z,9.07
2019-04-16T17:42:37.805Z,8.33
2019-04-16T17:45:44.342Z,10.50
2019-04-16T17:48:24.017Z,20.23
2019-04-16T17:51:06.300Z,10.33
2019-04-16T17:54:07.105Z,16.63
2019-04-16T17:56:58.167Z,10.33
2019-04-16T17:59:33.598Z,8.43
2019-04-16T18:02:37.014Z,13.07
2019-04-16T18:05:14.467Z,9.67
2019-04-16T18:08:06.989Z,8.13
2019-04-16T18:11:01.421Z,11.30
2019-04-16T18:14:08.825Z,8.50
2019-04-16T18:16:42.241Z,8.13
2019-04-16T18:19:30.815Z,10.23
2019-04-16T18:22:06.254Z,7.10
2019-04-16T18:24:53.613Z,8.70
2019-04-16T18:27:46.926Z,7.43
2019-04-16T18:30:38.165Z,10.87
2019-04-16T18:33:27.152Z,8.93
2019-04-16T18:36:18.643Z,7.93
2019-04-16T18:39:05.974Z,8.03
2019-04-16T18:41:48.331Z,14.40
2019-04-16T18:44:44.695Z,6.23
2019-04-16T18:47:32.840Z,7.07
2019-04-16T18:50:04.915Z,6.53
2019-04-16T18:52:36.566Z,8.17
2019-04-16T18:55:06.019Z,6.47
2019-04-16T18:57:38.427Z,6.93
2019-04-16T19:00:09.472Z,6.27
2019-04-16T19:02:41.912Z,7.63
2019-04-16T19:05:10.594Z,6.00
2019-04-16T19:07:40.499Z,6.53
2019-04-16T19:10:10.054Z,7.13
2019-04-16T19:12:39.638Z,7.20
2019-04-16T19:15:09.545Z,5.80
2019-04-16T19:17:39.143Z,7.37
2019-04-16T19:20:09.027Z,6.53
2019-04-16T19:22:38.562Z,6.13
2019-04-16T19:25:09.207Z,6.60
2019-04-16T19:27:39.236Z,6.27
2019-04-16T19:30:08.817Z,6.57
2019-04-16T19:32:38.825Z,5.50
2019-04-16T19:35:11.386Z,5.70
2019-04-16T19:37:39.875Z,5.67
2019-04-16T19:40:09.718Z,6.67
2019-04-16T19:42:39.289Z,5.57
2019-04-16T19:45:12.141Z,5.73
2019-04-16T19:47:40.400Z,6.43
2019-04-16T19:50:10.208Z,5.87
2019-04-16T19:52:39.916Z,5.37
2019-04-16T19:55:12.533Z,7.13
2019-04-16T19:57:41.284Z,6.13
2019-04-16T20:00:11.099Z,5.27
2019-04-16T20:02:40.806Z,5.93
2019-04-16T20:05:12.080Z,5.97
2019-04-16T20:07:41.989Z,5.93
2019-04-16T20:10:14.939Z,6.30
2019-04-16T20:12:44.851Z,6.47
2019-04-16T20:15:14.568Z,7.57
2019-04-16T20:17:44.208Z,7.87
2019-04-16T20:20:13.789Z,6.17
2019-04-16T20:22:45.120Z,6.30
2019-04-16T20:25:14.681Z,6.80
2019-04-16T20:27:44.219Z,7.07
2019-04-16T20:30:14.974Z,9.80
2019-04-16T20:32:44.522Z,9.27
2019-04-16T20:35:17.940Z,6.60
2019-04-16T20:37:46.073Z,8.30
2019-04-16T20:40:17.725Z,6.57
2019-04-16T20:42:46.893Z,4.90
2019-04-16T20:45:16.781Z,6.27
2019-04-16T20:47:46.335Z,5.87
2019-04-16T20:50:20.583Z,5.47
2019-04-16T20:52:47.155Z,7.20
2019-04-16T20:55:16.868Z,5.70
2019-04-16T20:57:46.435Z,5.80
2019-04-16T21:00:21.396Z,7.80
2019-04-16T21:02:51.299Z,6.43
2019-04-16T21:05:22.661Z,5.80
2019-04-16T21:08:10.347Z,5.77
2019-04-16T21:10:59.909Z,5.77
2019-04-16T21:13:29.610Z,5.77
2019-04-16T21:16:01.750Z,5.80
2019-04-16T21:18:30.872Z,5.73
2019-04-16T21:21:00.454Z,5.57
2019-04-16T21:23:31.976Z,7.13
2019-04-16T21:26:01.757Z,5.17
2019-04-16T21:28:39.140Z,4.83
2019-04-16T21:31:14.878Z,4.93
2019-04-16T21:33:53.097Z,5.77
2019-04-16T21:36:37.978Z,5.47
2019-04-16T21:39:17.106Z,5.73
2019-04-16T21:41:44.647Z,6.13
2019-04-16T21:44:14.200Z,4.90
2019-04-16T21:46:44.009Z,5.00
2019-04-16T21:49:13.586Z,4.93
2019-04-16T21:52:01.589Z,4.53
2019-04-16T21:54:31.654Z,4.87
2019-04-16T21:57:01.241Z,4.93
2019-04-16T21:59:31.253Z,6.60
2019-04-16T22:02:01.104Z,5.00
2019-04-16T22:04:30.678Z,5.00
2019-04-16T22:07:00.306Z,4.80
2019-04-16T22:09:29.915Z,4.93
2019-04-16T22:11:59.783Z,4.20
2019-04-16T22:14:29.469Z,4.80
2019-04-16T22:16:59.930Z,4.10
2019-04-16T22:19:30.905Z,6.67
2019-04-16T22:22:00.595Z,4.70
2019-04-16T22:24:30.154Z,3.93
2019-04-16T22:26:59.703Z,3.80
2019-04-16T22:29:29.248Z,4.30
2019-04-16T22:31:58.794Z,4.20
2019-04-16T22:34:28.336Z,3.83
2019-04-16T22:36:58.146Z,4.63
2019-04-16T22:39:40.285Z,3.83
2019-04-16T22:42:18.982Z,4.03
2019-04-16T22:45:07.892Z,4.13
2019-04-16T22:47:39.033Z,3.73
2019-04-16T22:50:16.042Z,6.77
2019-04-16T22:52:41.625Z,5.97
2019-04-16T22:55:11.179Z,5.27
2019-04-16T22:57:40.850Z,4.60
2019-04-16T23:00:21.411Z,3.80
2019-04-16T23:02:51.352Z,3.37
2019-04-16T23:05:20.886Z,3.63
2019-04-16T23:07:50.716Z,3.40
2019-04-16T23:10:21.002Z,3.70
2019-04-16T23:12:51.541Z,3.87
2019-04-16T23:15:21.068Z,3.63
2019-04-16T23:17:50.649Z,4.07
2019-04-16T23:20:40.328Z,3.50
2019-04-16T23:23:10.001Z,3.47
2019-04-16T23:25:40.176Z,4.63
2019-04-16T23:28:11.692Z,3.43
2019-04-16T23:30:41.940Z,3.27
2019-04-16T23:33:11.486Z,3.30
2019-04-16T23:35:44.295Z,4.37
2019-04-16T23:38:12.301Z,3.40
2019-04-16T23:40:43.904Z,4.17
2019-04-16T23:43:47.571Z,3.03
2019-04-16T23:46:48.062Z,3.13
2019-04-16T23:49:45.509Z,2.80
2019-04-16T23:52:20.728Z,3.33
2019-04-16T23:55:16.317Z,3.20
2019-04-16T23:58:01.549Z,3.63
